Time;durP1;ratioP1;P1;durP2;ratioP2;P2;SDS_P1;SDS_P2;PMS_P1;PMS_P2;Temp;Humidity;BMP_temperature;BMP_pressure;BME280_temperature;BME280_humidity;BME280_pressure;Samples;Min_cycle;Max_cycle;Signal;HPM_P1;HPM_P2
2023/07/06 00:08:17;;;;;;;;;;;13.80;99.90;;;;;;20864487;28;20026;-73
2023/07/06 00:18:20;;;;;;;;;;;13.80;99.90;;;;;;20836360;28;19990;-74
2023/07/06 00:28:28;;;;;;;;;;;13.80;99.90;;;;;;20836006;28;19924;-74
2023/07/06 00:38:29;;;;;;;;;;;13.90;99.90;;;;;;20834203;28;19928;-74
2023/07/06 00:48:32;;;;;;;;;;;13.70;99.90;;;;;;20834269;28;19917;-74
2023/07/06 00:58:34;;;;;;;;;;;13.40;99.90;;;;;;20832100;28;19921;-73
2023/07/06 01:08:35;;;;;;;;;;;12.90;99.90;;;;;;20831872;28;19924;-73
2023/07/06 01:18:45;;;;;;;;;;;12.60;99.90;;;;;;20830960;28;19917;-74
2023/07/06 01:28:55;;;;;;;;;;;12.60;99.90;;;;;;20800592;28;20023;-74
2023/07/06 01:39:13;;;;;;;;;;;12.30;99.90;;;;;;20829084;28;19921;-74
2023/07/06 01:49:13;;;;;;;;;;;12.40;99.90;;;;;;20828094;28;19924;-74
2023/07/06 01:59:17;;;;;;;;;;;12.10;99.90;;;;;;20827843;28;19913;-74
2023/07/06 02:09:18;;;;;;;;;;;12.20;99.90;;;;;;20832908;28;19978;-74
2023/07/06 02:19:20;;;;;;;;;;;12.50;99.90;;;;;;20826122;28;19956;-73
2023/07/06 02:29:22;;;;;;;;;;;12.80;99.90;;;;;;20826712;28;19963;-73
2023/07/06 02:39:24;;;;;;;;;;;13.00;99.90;;;;;;20766512;28;20447;-73
2023/07/06 02:49:25;;;;;;;;;;;13.00;99.90;;;;;;20742998;28;19918;-74
2023/07/06 02:59:25;;;;;;;;;;;13.10;99.90;;;;;;20744159;28;19921;-74
2023/07/06 03:09:29;;;;;;;;;;;13.10;99.90;;;;;;20803497;28;19971;-73
2023/07/06 03:19:29;;;;;;;;;;;13.10;99.90;;;;;;20857846;28;19916;-74
2023/07/06 03:29:30;;;;;;;;;;;13.20;99.90;;;;;;20923376;28;19986;-73
2023/07/06 03:39:31;;;;;;;;;;;13.20;99.90;;;;;;20859570;28;19975;-73
2023/07/06 03:49:34;;;;;;;;;;;12.90;99.90;;;;;;20836788;28;20372;-73
2023/07/06 03:59:34;;;;;;;;;;;12.90;99.90;;;;;;20850047;28;19936;-74
2023/07/06 04:09:36;;;;;;;;;;;13.00;99.90;;;;;;20831697;28;19917;-74
2023/07/06 04:19:37;;;;;;;;;;;13.20;99.90;;;;;;20823912;28;19956;-74
2023/07/06 04:29:37;;;;;;;;;;;13.30;99.90;;;;;;20829712;28;19924;-74
2023/07/06 04:39:38;;;;;;;;;;;13.30;99.90;;;;;;20829920;28;19913;-74
2023/07/06 04:49:39;;;;;;;;;;;13.40;99.90;;;;;;20834983;28;19917;-73
2023/07/06 04:59:40;;;;;;;;;;;13.60;99.90;;;;;;20834339;28;20446;-74
2023/07/06 05:09:42;;;;;;;;;;;14.00;99.90;;;;;;20832507;28;19917;-74
2023/07/06 05:19:43;;;;;;;;;;;14.40;99.90;;;;;;20828442;28;19917;-74
2023/07/06 05:29:43;;;;;;;;;;;14.50;99.90;;;;;;20825504;28;19928;-74
2023/07/06 05:39:44;;;;;;;;;;;14.70;99.90;;;;;;20862588;28;19920;-75
2023/07/06 05:49:45;;;;;;;;;;;14.90;99.90;;;;;;20824967;28;19917;-74
2023/07/06 05:59:50;;;;;;;;;;;15.00;99.90;;;;;;20834398;28;19947;-74
2023/07/06 06:09:51;;;;;;;;;;;15.30;99.90;;;;;;20822775;28;19971;-75
2023/07/06 06:19:52;;;;;;;;;;;15.60;99.90;;;;;;20827909;28;19921;-75
2023/07/06 06:29:53;;;;;;;;;;;16.10;99.90;;;;;;20840604;28;20403;-74
2023/07/06 06:39:53;;;;;;;;;;;16.70;99.90;;;;;;20833396;28;19923;-74
2023/07/06 06:49:54;;;;;;;;;;;16.60;99.90;;;;;;20909692;28;20440;-74
2023/07/06 06:59:55;;;;;;;;;;;17.50;99.90;;;;;;20907704;28;19920;-75
2023/07/06 07:09:55;;;;;;;;;;;18.10;99.90;;;;;;20778080;28;20342;-72
2023/07/06 07:19:56;;;;;;;;;;;18.80;99.90;;;;;;20742638;28;20000;-74
2023/07/06 07:29:58;;;;;;;;;;;19.50;99.90;;;;;;20741755;28;19917;-74
2023/07/06 07:40:00;;;;;;;;;;;19.90;99.90;;;;;;20742184;28;19913;-74
2023/07/06 07:50:03;;;;;;;;;;;20.60;99.90;;;;;;20741953;28;19996;-74
2023/07/06 08:00:07;;;;;;;;;;;21.10;99.90;;;;;;20742481;28;20303;-74
2023/07/06 08:10:15;;;;;;;;;;;21.50;99.90;;;;;;20756308;28;19925;-74
2023/07/06 08:20:17;;;;;;;;;;;21.90;99.90;;;;;;20755185;28;20376;-74
2023/07/06 08:30:20;;;;;;;;;;;22.10;99.90;;;;;;20752836;28;20019;-73
2023/07/06 08:40:24;;;;;;;;;;;21.90;99.90;;;;;;20753346;28;20307;-74
2023/07/06 08:50:29;;;;;;;;;;;22.90;99.90;;;;;;20752596;28;19917;-73
2023/07/06 09:00:31;;;;;;;;;;;22.50;99.90;;;;;;20766952;28;19917;-74
2023/07/06 09:10:32;;;;;;;;;;;23.40;99.90;;;;;;20823896;28;20272;-74
2023/07/06 09:20:34;;;;;;;;;;;23.50;99.90;;;;;;20830536;28;19917;-73
2023/07/06 09:30:38;;;;;;;;;;;23.10;99.90;;;;;;20831788;28;19917;-74
2023/07/06 09:40:43;;;;;;;;;;;24.90;99.90;;;;;;20830078;28;20346;-74
2023/07/06 09:50:48;;;;;;;;;;;25.30;99.30;;;;;;20829160;28;20356;-74
2023/07/06 10:00:55;;;;;;;;;;;25.30;98.00;;;;;;20829267;28;19948;-74
2023/07/06 10:11:14;;;;;;;;;;;25.50;97.00;;;;;;20828221;28;19917;-74
2023/07/06 10:21:25;;;;;;;;;;;25.80;95.60;;;;;;20827599;28;19967;-74
2023/07/06 10:31:31;;;;;;;;;;;25.50;96.20;;;;;;20826335;28;19924;-73
2023/07/06 10:41:34;;;;;;;;;;;26.20;96.40;;;;;;20826345;28;19967;-73
2023/07/06 10:51:44;;;;;;;;;;;26.30;94.90;;;;;;20824544;28;19917;-73
2023/07/06 11:01:47;;;;;;;;;;;26.00;95.00;;;;;;20825512;28;19913;-73
2023/07/06 11:11:49;;;;;;;;;;;26.70;96.10;;;;;;20823815;28;19917;-73
2023/07/06 11:21:52;;;;;;;;;;;27.20;94.80;;;;;;20817904;28;19960;-73
2023/07/06 11:32:16;;;;;;;;;;;27.30;93.60;;;;;;20823680;28;19979;-74
2023/07/06 11:42:26;;;;;;;;;;;25.90;94.40;;;;;;20804258;28;19917;-73
2023/07/06 11:52:35;;;;;;;;;;;25.50;98.00;;;;;;20853839;28;19916;-73
2023/07/06 12:02:36;;;;;;;;;;;24.50;98.80;;;;;;20912038;28;19921;-74
2023/07/06 12:12:37;;;;;;;;;;;26.70;95.60;;;;;;20800312;28;19998;-74
2023/07/06 12:22:54;;;;;;;;;;;27.60;94.80;;;;;;20830275;28;20431;-74
2023/07/06 12:32:55;;;;;;;;;;;26.80;94.20;;;;;;20833808;28;19918;-74
2023/07/06 12:42:56;;;;;;;;;;;26.50;95.50;;;;;;20810507;28;19913;-74
2023/07/06 12:53:05;;;;;;;;;;;25.10;94.70;;;;;;20824611;28;19964;-74
2023/07/06 13:03:10;;;;;;;;;;;26.20;94.80;;;;;;20819579;28;20400;-74
2023/07/06 13:13:20;;;;;;;;;;;27.00;93.90;;;;;;20823859;28;19917;-74
2023/07/06 13:23:21;;;;;;;;;;;27.50;91.50;;;;;;20828268;28;20380;-74
2023/07/06 13:33:21;;;;;;;;;;;26.90;93.30;;;;;;20831357;28;19980;-74
2023/07/06 13:43:23;;;;;;;;;;;27.00;92.90;;;;;;20818566;28;19913;-74
2023/07/06 13:53:26;;;;;;;;;;;27.80;92.70;;;;;;20829203;28;20276;-74
2023/07/06 14:03:28;;;;;;;;;;;27.80;92.40;;;;;;20828210;28;20380;-74
2023/07/06 14:13:29;;;;;;;;;;;27.40;92.20;;;;;;20820233;28;19921;-75
2023/07/06 14:23:30;;;;;;;;;;;27.30;92.10;;;;;;20876653;28;20437;-75
2023/07/06 14:33:30;;;;;;;;;;;27.10;93.80;;;;;;20892114;28;19917;-74
2023/07/06 14:43:33;;;;;;;;;;;25.70;96.00;;;;;;20815361;28;20149;-74
2023/07/06 14:53:35;;;;;;;;;;;26.50;94.60;;;;;;20794888;28;20011;-74
2023/07/06 15:03:35;;;;;;;;;;;26.20;95.60;;;;;;20822285;28;20439;-75
2023/07/06 15:13:36;;;;;;;;;;;26.70;94.20;;;;;;20812840;28;19917;-75
2023/07/06 15:23:38;;;;;;;;;;;26.70;93.20;;;;;;20856101;28;20014;-75
2023/07/06 15:33:39;;;;;;;;;;;26.00;93.10;;;;;;20835340;28;19924;-75
2023/07/06 15:43:40;;;;;;;;;;;26.50;93.70;;;;;;20831492;28;20467;-75
2023/07/06 15:53:40;;;;;;;;;;;27.00;93.00;;;;;;20838091;28;19917;-75
2023/07/06 16:03:41;;;;;;;;;;;27.60;92.50;;;;;;20838573;28;20547;-74
2023/07/06 16:13:41;;;;;;;;;;;27.20;92.50;;;;;;20827232;28;19917;-73
2023/07/06 16:23:43;;;;;;;;;;;26.10;93.30;;;;;;20834149;28;19914;-75
2023/07/06 16:33:43;;;;;;;;;;;26.60;92.80;;;;;;20818764;28;20152;-75
2023/07/06 16:43:44;;;;;;;;;;;26.50;91.90;;;;;;20831677;28;19921;-73
2023/07/06 16:53:45;;;;;;;;;;;25.70;92.80;;;;;;20835513;28;19990;-74
2023/07/06 17:03:45;;;;;;;;;;;26.00;93.70;;;;;;20834450;28;20287;-74
2023/07/06 17:13:46;;;;;;;;;;;26.00;92.70;;;;;;20862571;28;19917;-74
2023/07/06 17:23:47;;;;;;;;;;;26.10;94.00;;;;;;20869856;28;20432;-74
2023/07/06 17:33:48;;;;;;;;;;;26.20;92.70;;;;;;20864159;28;19994;-74
2023/07/06 17:43:48;;;;;;;;;;;25.70;92.20;;;;;;20841643;28;19913;-74
2023/07/06 17:53:49;;;;;;;;;;;25.70;92.10;;;;;;20875388;28;19967;-74
2023/07/06 18:03:50;;;;;;;;;;;25.60;94.50;;;;;;20867094;28;19920;-74
2023/07/06 18:13:51;;;;;;;;;;;26.30;96.10;;;;;;20837052;28;20008;-74
2023/07/06 18:23:52;;;;;;;;;;;26.70;97.90;;;;;;20789214;28;19920;-75
2023/07/06 18:33:53;;;;;;;;;;;26.00;99.90;;;;;;20795097;28;19949;-74
2023/07/06 18:43:53;;;;;;;;;;;24.70;99.90;;;;;;20788936;28;20420;-74
2023/07/06 18:53:54;;;;;;;;;;;23.70;99.90;;;;;;20792899;28;19925;-73
2023/07/06 19:03:55;;;;;;;;;;;22.90;99.90;;;;;;20812209;28;19920;-74
2023/07/06 19:13:55;;;;;;;;;;;22.30;99.90;;;;;;20856666;28;19932;-74
2023/07/06 19:23:56;;;;;;;;;;;21.60;99.90;;;;;;20849421;28;19927;-74
2023/07/06 19:33:57;;;;;;;;;;;20.70;99.90;;;;;;20853762;28;19960;-74
2023/07/06 19:43:57;;;;;;;;;;;19.80;99.90;;;;;;20851026;28;19913;-74
2023/07/06 19:53:58;;;;;;;;;;;18.70;99.90;;;;;;20805896;28;19917;-74
2023/07/06 20:03:59;;;;;;;;;;;19.50;99.90;;;;;;20918212;28;19913;-74
2023/07/06 20:13:59;;;;;;;;;;;19.10;99.90;;;;;;20848958;28;20388;-74
2023/07/06 20:24:00;;;;;;;;;;;18.60;99.90;;;;;;20834392;28;19959;-74
2023/07/06 20:34:01;;;;;;;;;;;18.10;99.90;;;;;;20846789;28;20383;-74
2023/07/06 20:44:02;;;;;;;;;;;17.70;99.90;;;;;;20859354;28;20438;-73
2023/07/06 20:54:03;;;;;;;;;;;17.70;99.90;;;;;;20817134;28;19917;-72
2023/07/06 21:04:03;;;;;;;;;;;17.70;99.90;;;;;;20824539;28;20406;-72
2023/07/06 21:14:07;;;;;;;;;;;17.10;99.90;;;;;;20827646;28;19921;-72
2023/07/06 21:24:08;;;;;;;;;;;17.20;99.90;;;;;;20839600;28;19920;-72
2023/07/06 21:34:10;;;;;;;;;;;17.20;99.90;;;;;;20830514;28;19940;-73
2023/07/06 21:44:10;;;;;;;;;;;17.40;99.90;;;;;;20772249;28;20304;-73
2023/07/06 21:54:11;;;;;;;;;;;16.90;99.90;;;;;;20749053;28;19917;-73
2023/07/06 22:04:12;;;;;;;;;;;17.20;99.90;;;;;;20762174;28;19949;-73
2023/07/06 22:14:13;;;;;;;;;;;17.40;99.90;;;;;;20805253;28;19963;-73
2023/07/06 22:24:13;;;;;;;;;;;16.30;99.90;;;;;;20827113;28;19913;-73
2023/07/06 22:34:14;;;;;;;;;;;16.10;99.90;;;;;;20818811;28;19921;-73
2023/07/06 22:44:15;;;;;;;;;;;16.50;99.90;;;;;;20821058;28;19975;-73
2023/07/06 22:54:15;;;;;;;;;;;16.90;99.90;;;;;;20811141;28;19917;-73
2023/07/06 23:04:16;;;;;;;;;;;16.80;99.90;;;;;;20834919;28;19913;-72
2023/07/06 23:14:16;;;;;;;;;;;16.30;99.90;;;;;;20780061;28;19917;-73
2023/07/06 23:24:17;;;;;;;;;;;16.20;99.90;;;;;;20754707;28;20349;-73
2023/07/06 23:34:19;;;;;;;;;;;16.00;99.90;;;;;;20803541;28;19978;-72
2023/07/06 23:44:20;;;;;;;;;;;16.20;99.90;;;;;;20830695;28;19920;-72
2023/07/06 23:54:20;;;;;;;;;;;16.20;99.90;;;;;;20831164;28;19917;-72
